Time;durP1;ratioP1;P1;durP2;ratioP2;P2;SDS_P1;SDS_P2;PMS_P1;PMS_P2;Temp;Humidity;BMP_temperature;BMP_pressure;BME280_temperature;BME280_humidity;BME280_pressure;Samples;Min_cycle;Max_cycle;Signal;HPM_P1;HPM_P2
2024/02/18 00:02:06;;;;;;;1.30;0.55;;;7.80;99.90;;;;;;4417148;32;20070;-59
2024/02/18 00:04:32;;;;;;;0.57;0.57;;;7.70;99.90;;;;;;4427402;32;20080;-59
2024/02/18 00:06:58;;;;;;;0.35;0.35;;;7.70;99.90;;;;;;4426639;32;20080;-59
2024/02/18 00:09:23;;;;;;;0.50;0.50;;;7.60;99.90;;;;;;4419893;32;20058;-60
2024/02/18 00:11:49;;;;;;;0.40;0.40;;;7.60;99.90;;;;;;4425120;32;20078;-60
2024/02/18 00:14:14;;;;;;;1.55;1.20;;;7.60;99.90;;;;;;4427784;32;20419;-59
2024/02/18 00:16:40;;;;;;;0.40;0.40;;;7.70;99.90;;;;;;4419700;32;20057;-60
2024/02/18 00:19:07;;;;;;;1.00;0.70;;;7.70;99.90;;;;;;4417600;32;20069;-60
2024/02/18 00:21:33;;;;;;;0.60;0.60;;;7.80;99.90;;;;;;4431590;32;20082;-65
2024/02/18 00:23:58;;;;;;;0.80;0.57;;;7.70;99.90;;;;;;4428474;32;20521;-59
2024/02/18 00:26:24;;;;;;;0.30;0.30;;;7.70;99.90;;;;;;4428467;32;20089;-59
2024/02/18 00:28:50;;;;;;;0.30;0.30;;;7.70;99.90;;;;;;4416779;32;20097;-59
2024/02/18 00:31:15;;;;;;;0.40;0.40;;;7.70;99.90;;;;;;4427926;32;20085;-60
2024/02/18 00:33:41;;;;;;;0.37;0.37;;;7.60;99.90;;;;;;4427465;32;20069;-60
2024/02/18 00:36:06;;;;;;;6.93;0.60;;;7.50;99.90;;;;;;4429109;32;20073;-60
2024/02/18 00:38:32;;;;;;;0.35;0.35;;;7.60;99.90;;;;;;4419835;32;20135;-60
2024/02/18 00:40:58;;;;;;;0.57;0.57;;;7.50;99.90;;;;;;4426913;32;20081;-59
2024/02/18 00:43:24;;;;;;;0.30;0.30;;;7.60;99.90;;;;;;4428359;32;20064;-60
2024/02/18 00:45:49;;;;;;;0.45;0.45;;;7.50;99.90;;;;;;4416918;32;20472;-59
2024/02/18 00:48:16;;;;;;;3.08;0.73;;;7.50;99.90;;;;;;4424856;32;20127;-61
2024/02/18 00:50:42;;;;;;;0.40;0.40;;;7.60;99.90;;;;;;4428610;32;20062;-63
2024/02/18 00:53:07;;;;;;;1.85;0.70;;;7.60;99.90;;;;;;4413965;32;20081;-60
2024/02/18 00:55:33;;;;;;;0.30;0.30;;;7.70;99.90;;;;;;4414844;32;20199;-60
2024/02/18 00:57:58;;;;;;;0.37;0.37;;;7.60;99.90;;;;;;4423298;32;20069;-59
2024/02/18 01:00:24;;;;;;;3.03;0.82;;;7.60;99.90;;;;;;4421971;32;20606;-59
2024/02/18 01:02:49;;;;;;;0.30;0.30;;;7.50;99.90;;;;;;4424682;32;20061;-60
2024/02/18 01:05:15;;;;;;;1.30;1.20;;;7.50;99.90;;;;;;4425102;32;20076;-60
2024/02/18 01:07:40;;;;;;;0.40;0.40;;;7.40;99.90;;;;;;4429498;32;20065;-59
2024/02/18 01:10:06;;;;;;;0.52;0.52;;;7.50;99.90;;;;;;4418381;32;20069;-60
2024/02/18 01:12:32;;;;;;;0.50;0.50;;;7.50;99.90;;;;;;4424428;32;20548;-60
2024/02/18 01:14:57;;;;;;;0.65;0.65;;;7.30;99.90;;;;;;4426145;32;20073;-60
2024/02/18 01:17:23;;;;;;;0.40;0.40;;;7.40;99.90;;;;;;4426117;32;20560;-59
2024/02/18 01:19:57;;;;;;;0.40;0.40;;;7.40;99.90;;;;;;4427700;32;20451;-62
2024/02/18 01:22:22;;;;;;;0.57;0.57;;;7.50;99.90;;;;;;4427851;32;20276;-59
2024/02/18 01:24:48;;;;;;;0.40;0.40;;;7.50;99.90;;;;;;4425697;32;20160;-60
2024/02/18 01:27:13;;;;;;;2.35;1.00;;;7.40;99.90;;;;;;4424998;32;20081;-59
2024/02/18 01:29:39;;;;;;;0.55;0.55;;;7.40;99.90;;;;;;4423823;32;20078;-59
2024/02/18 01:32:05;;;;;;;2.80;0.98;;;7.50;99.90;;;;;;4425036;32;20073;-60
2024/02/18 01:34:31;;;;;;;0.62;0.62;;;7.40;99.90;;;;;;4418025;32;20085;-59
2024/02/18 01:36:56;;;;;;;0.30;0.30;;;7.40;99.90;;;;;;4428159;32;20054;-61
2024/02/18 01:39:21;;;;;;;0.40;0.40;;;7.40;99.90;;;;;;4428110;32;20072;-60
2024/02/18 01:41:47;;;;;;;0.32;0.32;;;7.30;99.90;;;;;;4424843;32;20065;-59
2024/02/18 01:44:12;;;;;;;0.30;0.30;;;7.30;99.90;;;;;;4426657;32;20057;-60
2024/02/18 01:46:38;;;;;;;0.30;0.30;;;7.50;99.90;;;;;;4425811;32;20415;-59
2024/02/18 01:49:04;;;;;;;0.70;0.70;;;7.50;99.90;;;;;;4425584;32;20069;-60
2024/02/18 01:51:30;;;;;;;3.17;1.12;;;7.50;99.90;;;;;;4428121;32;20523;-58
2024/02/18 01:53:56;;;;;;;0.35;0.35;;;7.50;99.90;;;;;;4426835;32;20077;-59
2024/02/18 01:56:23;;;;;;;0.55;0.55;;;7.60;99.90;;;;;;4411966;32;20090;-58
2024/02/18 01:58:48;;;;;;;0.30;0.30;;;7.60;99.90;;;;;;4422267;32;20430;-60
2024/02/18 02:01:15;;;;;;;0.35;0.35;;;7.60;99.90;;;;;;4427751;32;20057;-60
2024/02/18 02:03:42;;;;;;;1.55;0.85;;;7.50;99.90;;;;;;4425948;32;20127;-59
2024/02/18 02:06:11;;;;;;;0.40;0.40;;;7.50;99.90;;;;;;4426227;32;20121;-60
2024/02/18 02:08:37;;;;;;;0.30;0.30;;;7.50;99.90;;;;;;4425526;32;20123;-59
2024/02/18 02:11:03;;;;;;;1.05;0.55;;;7.40;99.90;;;;;;4426228;32;20490;-59
2024/02/18 02:13:28;;;;;;;0.37;0.37;;;7.40;99.90;;;;;;4425681;32;20651;-62
2024/02/18 02:15:54;;;;;;;0.62;0.62;;;7.50;99.90;;;;;;4425356;32;20112;-63
2024/02/18 02:18:19;;;;;;;0.40;0.40;;;7.40;99.90;;;;;;4428889;32;20423;-60
2024/02/18 02:20:45;;;;;;;0.35;0.35;;;7.40;99.90;;;;;;4429636;32;20069;-65
2024/02/18 02:23:11;;;;;;;0.50;0.50;;;7.40;99.90;;;;;;4432472;32;20484;-60
2024/02/18 02:25:36;;;;;;;0.30;0.30;;;7.40;99.90;;;;;;4429716;32;20086;-60
2024/02/18 02:28:24;;;;;;;2.92;0.95;;;7.30;99.90;;;;;;4426062;32;20431;-61
2024/02/18 02:30:50;;;;;;;0.93;0.93;;;7.20;99.90;;;;;;4425078;32;20077;-60
2024/02/18 02:33:17;;;;;;;0.40;0.40;;;7.10;99.90;;;;;;4418727;32;20085;-59
2024/02/18 02:35:43;;;;;;;0.40;0.40;;;7.10;99.90;;;;;;4418448;32;20062;-60
2024/02/18 02:38:09;;;;;;;4.28;1.55;;;7.20;99.90;;;;;;4430921;32;20085;-60
2024/02/18 02:40:34;;;;;;;0.70;0.70;;;7.20;99.90;;;;;;4427251;32;20563;-60
2024/02/18 02:43:01;;;;;;;0.50;0.50;;;7.20;99.90;;;;;;4416210;32;20627;-60
2024/02/18 02:45:26;;;;;;;0.30;0.30;;;7.30;99.90;;;;;;4403102;32;20094;-60
2024/02/18 02:47:52;;;;;;;0.30;0.30;;;7.30;99.90;;;;;;4428485;32;20070;-63
2024/02/18 02:50:18;;;;;;;1.33;0.55;;;7.20;99.90;;;;;;4432416;32;20107;-60
2024/02/18 02:52:44;;;;;;;0.43;0.40;;;7.20;99.90;;;;;;4427418;32;20077;-64
2024/02/18 02:55:10;;;;;;;0.68;0.68;;;7.20;99.90;;;;;;4430412;32;20073;-60
2024/02/18 02:57:35;;;;;;;0.43;0.43;;;6.90;99.90;;;;;;4418371;32;20098;-59
2024/02/18 03:00:08;;;;;;;5.72;1.25;;;6.80;99.90;;;;;;4420795;32;20128;-59
2024/02/18 03:02:34;;;;;;;0.88;0.70;;;6.70;99.90;;;;;;4416621;32;20551;-59
2024/02/18 03:04:59;;;;;;;4.30;0.95;;;6.60;99.90;;;;;;4431244;32;20086;-61
2024/02/18 03:07:24;;;;;;;3.97;0.85;;;6.60;99.90;;;;;;4430203;32;20532;-59
2024/02/18 03:09:50;;;;;;;2.00;0.60;;;6.70;99.90;;;;;;4428179;32;20089;-59
2024/02/18 03:12:15;;;;;;;21.27;3.03;;;6.60;99.90;;;;;;4427554;32;20089;-59
2024/02/18 03:14:41;;;;;;;0.70;0.70;;;6.60;99.90;;;;;;4427439;32;20057;-58
2024/02/18 03:17:07;;;;;;;1.55;0.75;;;6.50;99.90;;;;;;4429004;32;20561;-59
2024/02/18 03:19:32;;;;;;;0.73;0.40;;;6.40;99.90;;;;;;4427590;32;20443;-60
2024/02/18 03:21:58;;;;;;;8.75;1.17;;;6.30;99.90;;;;;;4422933;32;20089;-60
2024/02/18 03:24:24;;;;;;;0.40;0.40;;;6.30;99.90;;;;;;4420887;32;20442;-59
2024/02/18 03:26:49;;;;;;;1.87;0.95;;;6.30;99.90;;;;;;4428279;32;20085;-59
2024/02/18 03:29:15;;;;;;;1.08;0.40;;;6.30;99.90;;;;;;4426073;32;20093;-60
2024/02/18 03:31:40;;;;;;;0.30;0.30;;;6.20;99.90;;;;;;4428497;32;20062;-60
2024/02/18 03:34:06;;;;;;;6.15;1.10;;;6.10;99.90;;;;;;4429667;32;20082;-58
2024/02/18 03:36:31;;;;;;;0.30;0.30;;;6.20;99.90;;;;;;4420847;32;20112;-60
2024/02/18 03:38:57;;;;;;;0.50;0.50;;;5.90;99.90;;;;;;4431156;32;20479;-60
2024/02/18 03:41:22;;;;;;;0.35;0.35;;;5.90;99.90;;;;;;4430491;32;20448;-59
2024/02/18 03:43:48;;;;;;;0.30;0.30;;;5.80;99.90;;;;;;4426175;32;20600;-60
2024/02/18 03:46:13;;;;;;;0.30;0.30;;;5.80;99.90;;;;;;4429725;32;20527;-60
2024/02/18 03:48:39;;;;;;;0.50;0.50;;;5.90;99.90;;;;;;4420672;32;20064;-59
2024/02/18 03:51:04;;;;;;;0.50;0.50;;;5.90;99.90;;;;;;4429424;32;20077;-58
2024/02/18 03:53:30;;;;;;;0.30;0.30;;;5.90;99.90;;;;;;4430142;32;20128;-58
2024/02/18 03:55:55;;;;;;;0.98;0.98;;;5.90;99.90;;;;;;4424932;32;20093;-64
2024/02/18 03:58:21;;;;;;;0.37;0.37;;;5.80;99.90;;;;;;4425624;32;20489;-65
2024/02/18 04:00:46;;;;;;;0.40;0.40;;;5.70;99.90;;;;;;4423203;32;20082;-60
2024/02/18 04:03:13;;;;;;;0.35;0.35;;;5.70;99.90;;;;;;4429277;32;20070;-60
2024/02/18 04:05:39;;;;;;;0.40;0.40;;;5.60;99.90;;;;;;4415906;32;20599;-60
2024/02/18 04:08:05;;;;;;;0.50;0.50;;;5.40;99.90;;;;;;4415586;32;20128;-60
2024/02/18 04:10:31;;;;;;;0.40;0.40;;;5.50;99.90;;;;;;4425673;32;20068;-59
2024/02/18 04:12:56;;;;;;;2.90;0.80;;;5.40;99.90;;;;;;4427977;32;20112;-60
2024/02/18 04:15:22;;;;;;;0.40;0.40;;;5.40;99.90;;;;;;4426105;32;21529;-59
2024/02/18 04:17:48;;;;;;;0.52;0.52;;;5.40;99.90;;;;;;4427392;32;20064;-60
2024/02/18 04:20:14;;;;;;;0.85;0.77;;;5.40;99.90;;;;;;4429967;32;20487;-60
2024/02/18 04:22:41;;;;;;;0.30;0.30;;;5.50;99.90;;;;;;4429443;32;20073;-60
2024/02/18 04:25:06;;;;;;;0.30;0.30;;;5.50;99.90;;;;;;4427423;32;20073;-60
2024/02/18 04:27:32;;;;;;;0.73;0.73;;;5.30;99.90;;;;;;4425454;32;20066;-59
2024/02/18 04:29:57;;;;;;;0.60;0.60;;;5.20;99.90;;;;;;4426532;32;20151;-60
2024/02/18 04:32:23;;;;;;;2.92;1.15;;;5.20;99.90;;;;;;4426622;32;20069;-59
2024/02/18 04:34:48;;;;;;;0.70;0.70;;;5.00;99.90;;;;;;4428771;32;20078;-59
2024/02/18 04:37:14;;;;;;;3.10;1.08;;;4.90;99.90;;;;;;4427174;32;20104;-59
2024/02/18 04:39:40;;;;;;;0.35;0.35;;;4.80;99.90;;;;;;4427390;32;20446;-59
2024/02/18 04:42:05;;;;;;;0.52;0.52;;;4.80;99.90;;;;;;4426233;32;20074;-57
2024/02/18 04:44:30;;;;;;;0.40;0.40;;;5.00;99.90;;;;;;4429932;32;20132;-60
2024/02/18 04:46:56;;;;;;;2.08;1.45;;;5.10;99.90;;;;;;4427826;32;20073;-59
2024/02/18 04:49:21;;;;;;;0.40;0.40;;;5.20;99.90;;;;;;4430036;32;20129;-58
2024/02/18 04:51:47;;;;;;;0.40;0.40;;;5.30;99.90;;;;;;4427882;32;20128;-59
2024/02/18 04:54:14;;;;;;;0.45;0.45;;;5.40;99.90;;;;;;4427520;32;20112;-61
2024/02/18 04:56:39;;;;;;;0.40;0.40;;;5.40;99.90;;;;;;4426156;32;20069;-60
2024/02/18 04:59:05;;;;;;;0.40;0.40;;;5.40;99.90;;;;;;4424726;32;20073;-59
2024/02/18 05:01:30;;;;;;;1.45;0.62;;;5.30;99.90;;;;;;4426997;32;20077;-60
2024/02/18 05:03:56;;;;;;;0.98;0.95;;;5.20;99.90;;;;;;4418487;32;20533;-59
2024/02/18 05:06:21;;;;;;;0.55;0.55;;;5.30;99.90;;;;;;4428823;32;20398;-59
2024/02/18 05:08:47;;;;;;;0.35;0.35;;;5.30;99.90;;;;;;4429387;32;20409;-59
2024/02/18 05:11:12;;;;;;;0.55;0.55;;;5.30;99.90;;;;;;4428439;32;20297;-60
2024/02/18 05:13:38;;;;;;;34.75;0.82;;;5.20;99.90;;;;;;4427646;32;20065;-57
2024/02/18 05:16:03;;;;;;;0.40;0.40;;;5.20;99.90;;;;;;4428370;32;20488;-59
2024/02/18 05:18:29;;;;;;;0.40;0.40;;;5.10;99.90;;;;;;4429273;32;20120;-59
2024/02/18 05:20:55;;;;;;;0.57;0.57;;;5.10;99.90;;;;;;4429046;32;20212;-60
2024/02/18 05:23:21;;;;;;;0.37;0.37;;;5.10;99.90;;;;;;4426707;32;20081;-61
2024/02/18 05:25:46;;;;;;;0.47;0.32;;;5.10;99.90;;;;;;4427078;32;20082;-59
2024/02/18 05:28:12;;;;;;;0.40;0.40;;;4.80;99.90;;;;;;4426773;32;20116;-60
2024/02/18 05:30:38;;;;;;;0.45;0.45;;;4.60;99.90;;;;;;4415493;32;20077;-59
2024/02/18 05:33:04;;;;;;;0.60;0.60;;;4.70;99.90;;;;;;4426886;32;21026;-60
2024/02/18 05:35:29;;;;;;;0.40;0.40;;;4.80;99.90;;;;;;4429003;32;20084;-58
2024/02/18 05:37:57;;;;;;;1.80;0.52;;;4.90;99.90;;;;;;4427034;32;20081;-59
2024/02/18 05:40:23;;;;;;;0.55;0.55;;;4.80;99.90;;;;;;4426216;32;20108;-58
2024/02/18 05:42:48;;;;;;;0.40;0.40;;;4.90;99.90;;;;;;4426110;32;20512;-60
2024/02/18 05:45:20;;;;;;;0.35;0.35;;;4.90;99.90;;;;;;4426714;32;20081;-60
2024/02/18 05:47:45;;;;;;;0.40;0.40;;;4.90;99.90;;;;;;4426705;32;20065;-60
2024/02/18 05:50:11;;;;;;;0.40;0.40;;;4.80;99.90;;;;;;4424876;32;20061;-61
2024/02/18 05:52:36;;;;;;;7.12;1.60;;;4.70;99.90;;;;;;4432845;32;20077;-61
2024/02/18 05:55:02;;;;;;;2.87;1.23;;;4.50;99.90;;;;;;4432569;32;20060;-58
2024/02/18 05:57:27;;;;;;;0.65;0.65;;;4.30;99.90;;;;;;4425044;32;20069;-61
2024/02/18 05:59:53;;;;;;;0.77;0.75;;;4.20;99.90;;;;;;4427930;32;21197;-59
2024/02/18 06:02:18;;;;;;;34.03;1.37;;;4.20;99.90;;;;;;4426613;32;20136;-60
2024/02/18 06:04:44;;;;;;;0.50;0.50;;;4.30;99.90;;;;;;4429643;32;20071;-61
2024/02/18 06:07:09;;;;;;;1.40;1.08;;;4.40;99.90;;;;;;4423735;32;20173;-60
2024/02/18 06:09:35;;;;;;;6.12;1.27;;;4.30;99.90;;;;;;4429050;32;20093;-59
2024/02/18 06:12:00;;;;;;;0.47;0.47;;;4.30;99.90;;;;;;4428807;32;20073;-61
2024/02/18 06:14:26;;;;;;;0.30;0.30;;;4.20;99.90;;;;;;4424758;32;20447;-61
2024/02/18 06:16:51;;;;;;;0.82;0.80;;;4.20;99.90;;;;;;4433822;32;20049;-60
2024/02/18 06:19:17;;;;;;;0.57;0.57;;;4.20;99.90;;;;;;4431569;32;20061;-60
2024/02/18 06:21:42;;;;;;;1.25;1.15;;;4.10;99.90;;;;;;4431027;32;20061;-61
2024/02/18 06:24:08;;;;;;;0.50;0.50;;;4.10;99.90;;;;;;4428319;32;21247;-63
2024/02/18 06:26:33;;;;;;;1.77;1.05;;;4.10;99.90;;;;;;4432166;32;20080;-60
2024/02/18 06:28:59;;;;;;;0.50;0.50;;;4.00;99.90;;;;;;4425256;32;20077;-60
2024/02/18 06:31:24;;;;;;;23.58;1.67;;;4.20;99.90;;;;;;4422791;32;20083;-61
2024/02/18 06:33:49;;;;;;;1.30;1.20;;;4.20;99.90;;;;;;4430795;32;20111;-60
2024/02/18 06:36:15;;;;;;;0.30;0.30;;;4.20;99.90;;;;;;4429041;32;20065;-61
2024/02/18 06:38:42;;;;;;;0.85;0.85;;;4.10;99.90;;;;;;4429884;32;20057;-60
2024/02/18 06:41:08;;;;;;;1.55;1.05;;;4.10;99.90;;;;;;4418147;32;20077;-60
2024/02/18 06:43:34;;;;;;;1.75;1.60;;;4.10;99.90;;;;;;4428997;32;20442;-59
2024/02/18 06:45:59;;;;;;;0.40;0.40;;;4.10;99.90;;;;;;4425724;32;20050;-60
2024/02/18 06:48:25;;;;;;;1.05;1.00;;;4.10;99.90;;;;;;4421152;32;20114;-61
2024/02/18 06:50:50;;;;;;;0.52;0.52;;;4.10;99.90;;;;;;4428222;32;20427;-60
2024/02/18 06:53:15;;;;;;;0.40;0.40;;;4.10;99.90;;;;;;4421369;32;20111;-60
2024/02/18 06:55:41;;;;;;;0.40;0.40;;;4.20;99.90;;;;;;4418799;32;20548;-61
2024/02/18 06:58:08;;;;;;;0.88;0.80;;;4.10;99.90;;;;;;4416337;32;20136;-60
2024/02/18 07:00:34;;;;;;;0.50;0.50;;;4.10;99.90;;;;;;4415945;32;20090;-60
2024/02/18 07:02:59;;;;;;;0.60;0.60;;;4.20;99.90;;;;;;4414590;32;20081;-60
2024/02/18 07:05:25;;;;;;;1.90;1.02;;;4.20;99.90;;;;;;4421141;32;20069;-60
2024/02/18 07:07:50;;;;;;;0.50;0.50;;;4.20;99.90;;;;;;4416047;32;20127;-60
2024/02/18 07:10:16;;;;;;;0.52;0.52;;;4.20;99.90;;;;;;4418492;32;20057;-59
2024/02/18 07:12:41;;;;;;;0.90;0.90;;;4.20;99.90;;;;;;4415447;32;20525;-60
2024/02/18 07:15:07;;;;;;;0.40;0.40;;;4.20;99.90;;;;;;4416195;32;20369;-60
2024/02/18 07:17:33;;;;;;;0.43;0.43;;;4.30;99.90;;;;;;4415300;32;20061;-60
2024/02/18 07:19:58;;;;;;;0.40;0.40;;;4.40;99.90;;;;;;4421299;32;20121;-60
2024/02/18 07:22:24;;;;;;;0.40;0.40;;;4.50;99.90;;;;;;4420779;32;20065;-60
2024/02/18 07:24:50;;;;;;;1.27;0.73;;;4.50;99.90;;;;;;4417846;32;20069;-60
2024/02/18 07:27:15;;;;;;;0.40;0.40;;;4.60;99.90;;;;;;4419809;32;20188;-60
2024/02/18 07:29:41;;;;;;;6.10;1.30;;;4.70;99.90;;;;;;4418871;32;20081;-61
2024/02/18 07:32:06;;;;;;;1.02;0.95;;;4.80;99.90;;;;;;4420186;32;20121;-61
2024/02/18 07:34:32;;;;;;;0.40;0.40;;;4.80;99.90;;;;;;4417530;32;20081;-59
2024/02/18 07:36:58;;;;;;;3.40;1.80;;;5.00;99.90;;;;;;4418904;32;20929;-61
2024/02/18 07:39:24;;;;;;;1.33;0.65;;;5.10;99.90;;;;;;4415505;32;20120;-61
2024/02/18 07:41:51;;;;;;;0.85;0.55;;;5.20;99.90;;;;;;4416445;32;20078;-61
2024/02/18 07:44:16;;;;;;;0.40;0.40;;;5.30;99.90;;;;;;4416175;32;20124;-60
2024/02/18 07:46:42;;;;;;;0.43;0.43;;;5.20;99.90;;;;;;4419870;32;20361;-63
2024/02/18 07:49:07;;;;;;;0.37;0.37;;;5.20;99.90;;;;;;4421674;32;20065;-60
2024/02/18 07:51:33;;;;;;;2.55;1.08;;;5.10;99.90;;;;;;4419879;32;20128;-60
2024/02/18 07:53:59;;;;;;;4.95;1.30;;;5.20;99.90;;;;;;4428706;32;20085;-60
2024/02/18 07:56:24;;;;;;;2.58;0.77;;;5.10;99.90;;;;;;4426364;32;20130;-60
2024/02/18 07:58:50;;;;;;;1.40;1.05;;;5.30;99.90;;;;;;4428574;32;20065;-60
2024/02/18 08:01:15;;;;;;;2.25;1.48;;;5.40;99.90;;;;;;4430547;32;20626;-61
2024/02/18 08:03:41;;;;;;;0.50;0.50;;;5.40;99.90;;;;;;4428589;32;20060;-58
2024/02/18 08:06:08;;;;;;;0.60;0.60;;;5.50;99.90;;;;;;4429034;32;20074;-60
2024/02/18 08:08:34;;;;;;;3.00;1.65;;;5.50;99.90;;;;;;4420558;32;20061;-64
2024/02/18 08:10:59;;;;;;;0.30;0.30;;;5.40;99.90;;;;;;4418755;32;20119;-61
2024/02/18 08:13:25;;;;;;;3.00;1.40;;;5.40;99.90;;;;;;4424743;32;20081;-60
2024/02/18 08:15:50;;;;;;;0.40;0.40;;;5.50;99.90;;;;;;4429936;32;20049;-65
2024/02/18 08:18:16;;;;;;;0.45;0.45;;;5.60;99.90;;;;;;4430763;32;20521;-60
2024/02/18 08:20:43;;;;;;;0.30;0.30;;;5.70;99.90;;;;;;4418311;32;20077;-60
2024/02/18 08:23:08;;;;;;;3.00;0.75;;;5.70;99.90;;;;;;4418213;32;20080;-60
2024/02/18 08:25:34;;;;;;;3.28;0.90;;;5.70;99.90;;;;;;4429441;32;20094;-59
2024/02/18 08:28:01;;;;;;;0.30;0.30;;;5.80;99.90;;;;;;4426057;32;20073;-62
2024/02/18 08:30:26;;;;;;;0.30;0.30;;;5.90;99.90;;;;;;4413716;32;20548;-59
2024/02/18 08:32:52;;;;;;;0.70;0.70;;;6.00;99.90;;;;;;4426768;32;20136;-61
2024/02/18 08:35:17;;;;;;;0.50;0.50;;;6.00;99.90;;;;;;4426669;32;20058;-58
2024/02/18 08:37:45;;;;;;;1.75;1.48;;;6.00;99.90;;;;;;4427463;32;20454;-60
2024/02/18 08:40:11;;;;;;;7.47;1.37;;;6.00;99.90;;;;;;4426089;32;20057;-59
2024/02/18 08:42:36;;;;;;;2.33;1.48;;;6.00;99.90;;;;;;4422127;32;20139;-59
2024/02/18 08:45:02;;;;;;;0.80;0.77;;;6.00;99.90;;;;;;4425094;32;20579;-59
2024/02/18 08:47:27;;;;;;;0.40;0.40;;;6.10;99.90;;;;;;4425806;32;20086;-59
2024/02/18 08:49:53;;;;;;;8.18;0.47;;;6.20;99.90;;;;;;4426515;32;20097;-59
2024/02/18 08:52:18;;;;;;;0.50;0.50;;;6.20;99.90;;;;;;4421447;32;20176;-60
2024/02/18 08:54:44;;;;;;;0.77;0.77;;;6.30;99.90;;;;;;4408497;32;20070;-58
2024/02/18 08:57:10;;;;;;;0.45;0.45;;;6.40;99.90;;;;;;4409525;32;20517;-62
2024/02/18 08:59:35;;;;;;;0.32;0.32;;;6.40;99.90;;;;;;4397172;32;20053;-62
2024/02/18 09:02:01;;;;;;;0.68;0.68;;;6.50;99.90;;;;;;4408311;32;20085;-59
2024/02/18 09:04:26;;;;;;;18.42;1.02;;;6.50;99.90;;;;;;4410702;32;20061;-59
2024/02/18 09:06:52;;;;;;;2.65;0.98;;;6.50;99.90;;;;;;4409839;32;20077;-58
2024/02/18 09:09:18;;;;;;;0.43;0.43;;;6.50;99.90;;;;;;4407505;32;20065;-58
2024/02/18 09:11:44;;;;;;;0.73;0.70;;;6.60;99.90;;;;;;4407586;32;20062;-59
2024/02/18 09:14:10;;;;;;;0.50;0.50;;;6.50;99.90;;;;;;4404819;32;20078;-59
2024/02/18 09:16:35;;;;;;;0.57;0.57;;;6.60;99.90;;;;;;4410407;32;20809;-59
2024/02/18 09:19:01;;;;;;;2.37;0.47;;;6.70;99.90;;;;;;4410119;32;20070;-66
2024/02/18 09:21:26;;;;;;;2.62;1.08;;;6.70;99.90;;;;;;4409052;32;20415;-60
2024/02/18 09:23:52;;;;;;;3.87;1.45;;;6.70;99.90;;;;;;4406444;32;20506;-59
2024/02/18 09:26:17;;;;;;;0.40;0.40;;;6.70;99.90;;;;;;4408348;32;20085;-58
2024/02/18 09:28:43;;;;;;;0.62;0.62;;;6.60;99.90;;;;;;4407538;32;20073;-60
2024/02/18 09:31:08;;;;;;;0.32;0.32;;;6.70;99.90;;;;;;4407902;32;20216;-59
2024/02/18 09:33:34;;;;;;;0.40;0.40;;;6.80;99.90;;;;;;4408727;32;20074;-60
2024/02/18 09:36:00;;;;;;;0.65;0.65;;;6.90;99.90;;;;;;4409552;32;20537;-63
2024/02/18 09:38:27;;;;;;;0.50;0.50;;;6.90;99.90;;;;;;4407024;32;20081;-60
2024/02/18 09:40:54;;;;;;;0.30;0.30;;;7.00;99.90;;;;;;4405782;32;20501;-59
2024/02/18 09:43:21;;;;;;;0.30;0.30;;;7.00;99.90;;;;;;4407598;32;20070;-60
2024/02/18 09:45:49;;;;;;;0.30;0.30;;;7.00;99.90;;;;;;4408974;32;20070;-60
2024/02/18 09:48:16;;;;;;;0.40;0.40;;;7.10;99.90;;;;;;4407539;32;20085;-60
2024/02/18 09:50:42;;;;;;;0.80;0.80;;;7.20;99.90;;;;;;4408360;32;20062;-60
2024/02/18 09:53:11;;;;;;;0.40;0.40;;;7.00;99.90;;;;;;4419557;32;20062;-60
2024/02/18 09:55:38;;;;;;;0.32;0.32;;;7.10;99.90;;;;;;4416321;32;20066;-60
2024/02/18 09:58:03;;;;;;;0.50;0.50;;;7.20;99.90;;;;;;4425122;32;20670;-60
2024/02/18 10:00:29;;;;;;;1.60;1.10;;;7.30;99.90;;;;;;4424684;32;20085;-59
2024/02/18 10:02:55;;;;;;;4.82;1.60;;;7.30;99.90;;;;;;4425779;32;20073;-59
2024/02/18 10:05:22;;;;;;;0.43;0.43;;;7.50;99.90;;;;;;4427475;32;20587;-60
2024/02/18 10:08:00;;;;;;;5.35;1.92;;;7.50;99.90;;;;;;4426841;32;20064;-59
2024/02/18 10:10:26;;;;;;;0.32;0.32;;;7.50;99.90;;;;;;4418883;32;20096;-58
2024/02/18 10:12:52;;;;;;;0.90;0.90;;;7.60;99.90;;;;;;4429407;32;20588;-61
2024/02/18 10:15:19;;;;;;;0.40;0.40;;;7.70;99.90;;;;;;4426495;32;20061;-59
2024/02/18 10:17:45;;;;;;;0.60;0.60;;;7.80;99.90;;;;;;4426054;32;20065;-60
2024/02/18 10:20:10;;;;;;;0.40;0.40;;;7.90;99.90;;;;;;4431316;32;20060;-60
2024/02/18 10:22:36;;;;;;;0.40;0.40;;;7.90;99.90;;;;;;4427109;32;20061;-61
2024/02/18 10:25:03;;;;;;;0.30;0.30;;;7.90;99.90;;;;;;4426860;32;20073;-60
2024/02/18 10:27:28;;;;;;;0.50;0.50;;;7.80;99.90;;;;;;4427758;32;20535;-60
2024/02/18 10:29:54;;;;;;;0.40;0.40;;;7.90;99.90;;;;;;4415771;32;20090;-59
2024/02/18 10:32:19;;;;;;;0.85;0.47;;;7.90;99.90;;;;;;4426514;32;20070;-60
2024/02/18 10:34:45;;;;;;;0.75;0.75;;;8.00;99.90;;;;;;4431657;32;20695;-58
2024/02/18 10:37:25;;;;;;;0.57;0.57;;;8.20;99.90;;;;;;4426645;32;20069;-59
2024/02/18 10:39:56;;;;;;;2.37;1.40;;;8.30;99.90;;;;;;4432360;32;20120;-59
2024/02/18 10:42:24;;;;;;;0.40;0.40;;;8.20;99.90;;;;;;4418285;32;20140;-59
2024/02/18 10:44:52;;;;;;;0.32;0.32;;;8.30;99.90;;;;;;4430612;32;20081;-59
2024/02/18 10:47:18;;;;;;;3.03;0.70;;;8.40;99.90;;;;;;4427487;32;20146;-59
2024/02/18 10:49:51;;;;;;;0.60;0.60;;;8.50;99.90;;;;;;4431256;32;20077;-62
2024/02/18 10:52:32;;;;;;;0.75;0.75;;;8.50;99.90;;;;;;4425250;32;20069;-60
2024/02/18 10:55:04;;;;;;;2.28;1.20;;;8.60;99.90;;;;;;4429298;32;20123;-60
2024/02/18 10:57:38;;;;;;;1.48;0.57;;;8.60;99.90;;;;;;4425097;32;20073;-60
2024/02/18 11:02:43;;;;;;;;;;;8.80;99.90;;;;;;4426538;32;20068;-59
2024/02/18 11:05:10;;;;;;;1.62;0.93;;;8.90;99.90;;;;;;4428906;32;20256;-59
2024/02/18 11:07:36;;;;;;;0.30;0.30;;;9.10;99.90;;;;;;4426839;32;20528;-59
2024/02/18 11:10:03;;;;;;;1.52;0.93;;;9.20;99.90;;;;;;4429896;32;20066;-59
2024/02/18 11:12:31;;;;;;;1.30;0.85;;;9.40;99.90;;;;;;4403276;32;20065;-59
2024/02/18 11:14:59;;;;;;;1.52;0.88;;;9.60;99.90;;;;;;4416528;32;20168;-58
2024/02/18 11:17:25;;;;;;;1.05;0.70;;;9.50;99.90;;;;;;4406857;32;20149;-59
2024/02/18 11:19:51;;;;;;;0.60;0.60;;;9.30;99.90;;;;;;4427710;32;20068;-58
2024/02/18 11:22:18;;;;;;;0.70;0.70;;;9.30;99.90;;;;;;4429142;32;20105;-59
2024/02/18 11:24:47;;;;;;;4.53;1.02;;;9.40;99.90;;;;;;4429686;32;20564;-58
2024/02/18 11:27:12;;;;;;;0.80;0.80;;;9.30;99.90;;;;;;4428099;32;20112;-58
2024/02/18 11:29:49;;;;;;;0.98;0.95;;;9.40;99.90;;;;;;4426920;32;20116;-59
2024/02/18 11:32:14;;;;;;;0.75;0.65;;;9.40;99.90;;;;;;4426815;32;20711;-59
2024/02/18 11:34:43;;;;;;;1.23;1.00;;;9.50;99.90;;;;;;4428908;32;20130;-59
2024/02/18 11:37:29;;;;;;;0.60;0.57;;;9.60;99.90;;;;;;4428988;32;20425;-58
2024/02/18 11:39:57;;;;;;;0.45;0.45;;;9.50;99.90;;;;;;4418784;32;20128;-60
2024/02/18 11:42:24;;;;;;;0.50;0.50;;;9.70;99.90;;;;;;4427171;32;20767;-60
2024/02/18 11:44:52;;;;;;;2.70;1.50;;;9.70;99.90;;;;;;4423417;32;20069;-58
2024/02/18 11:47:17;;;;;;;0.50;0.50;;;9.80;99.90;;;;;;4424975;32;20069;-60
2024/02/18 11:49:43;;;;;;;1.40;0.80;;;9.90;99.90;;;;;;4428241;32;20077;-58
2024/02/18 11:52:08;;;;;;;0.45;0.45;;;10.00;99.90;;;;;;4421966;32;81925;-59
2024/02/18 11:54:34;;;;;;;1.85;1.10;;;9.90;99.90;;;;;;4415170;32;20580;-59
2024/02/18 11:56:59;;;;;;;3.10;1.08;;;10.10;99.90;;;;;;4412456;32;20533;-59
2024/02/18 11:59:25;;;;;;;0.37;0.37;;;10.20;99.90;;;;;;4411724;32;20049;-59
2024/02/18 12:01:50;;;;;;;0.50;0.50;;;10.30;99.90;;;;;;4416562;32;20132;-60
2024/02/18 12:04:16;;;;;;;0.85;0.85;;;10.50;99.90;;;;;;4415378;32;20045;-59
2024/02/18 12:06:42;;;;;;;1.35;1.00;;;10.60;99.90;;;;;;4417722;32;20057;-58
2024/02/18 12:09:14;;;;;;;0.45;0.45;;;10.60;99.90;;;;;;4419052;32;20074;-59
2024/02/18 12:11:44;;;;;;;0.70;0.70;;;10.70;99.90;;;;;;4414990;32;20053;-59
2024/02/18 12:14:09;;;;;;;0.40;0.40;;;10.90;99.90;;;;;;4415598;32;20077;-59
2024/02/18 12:16:36;;;;;;;0.50;0.50;;;10.80;99.90;;;;;;4410629;32;20171;-59
2024/02/18 12:19:02;;;;;;;15.70;1.42;;;10.70;99.90;;;;;;4420887;32;20572;-58
2024/02/18 12:21:27;;;;;;;1.65;0.60;;;11.00;99.90;;;;;;4417216;32;21087;-59
2024/02/18 12:23:53;;;;;;;0.40;0.40;;;10.90;99.90;;;;;;4418682;32;20584;-60
2024/02/18 12:26:18;;;;;;;0.70;0.70;;;10.90;99.90;;;;;;4417795;32;20479;-58
2024/02/18 12:28:44;;;;;;;0.77;0.65;;;11.10;99.90;;;;;;4416797;32;20197;-59
2024/02/18 12:31:09;;;;;;;4.37;1.23;;;11.10;99.90;;;;;;4415040;32;20065;-59
2024/02/18 12:33:35;;;;;;;0.82;0.82;;;11.20;99.90;;;;;;4414690;32;20085;-60
2024/02/18 12:36:01;;;;;;;0.68;0.68;;;11.40;99.90;;;;;;4417107;32;21129;-60
2024/02/18 12:38:26;;;;;;;0.50;0.50;;;11.50;99.90;;;;;;4415406;32;20093;-60
2024/02/18 12:40:55;;;;;;;0.57;0.57;;;11.20;99.90;;;;;;4414845;32;20054;-59
2024/02/18 12:43:21;;;;;;;5.03;1.23;;;11.20;99.90;;;;;;4410353;32;20105;-60
2024/02/18 12:45:48;;;;;;;0.40;0.40;;;11.30;99.90;;;;;;4417438;32;20469;-60
2024/02/18 12:48:14;;;;;;;1.10;0.75;;;11.30;99.90;;;;;;4417621;32;20128;-60
2024/02/18 12:50:40;;;;;;;7.60;1.75;;;11.40;99.90;;;;;;4415258;32;20116;-60
2024/02/18 12:53:05;;;;;;;0.70;0.70;;;11.30;99.90;;;;;;4416945;32;20090;-60